Time;durP1;ratioP1;P1;durP2;ratioP2;P2;SDS_P1;SDS_P2;PMS_P1;PMS_P2;Temp;Humidity;BMP_temperature;BMP_pressure;BME280_temperature;BME280_humidity;BME280_pressure;Samples;Min_cycle;Max_cycle;Signal;HPM_P1;HPM_P2
2022/10/16 00:01:42;;;;;;;6.05;5.72;;;13.00;99.90;;;;;;4170476;28;20122;-81
2022/10/16 00:04:02;;;;;;;7.20;6.75;;;13.00;99.90;;;;;;4171413;28;20056;-81
2022/10/16 00:06:24;;;;;;;5.57;5.07;;;12.90;99.90;;;;;;4171720;28;20087;-81
2022/10/16 00:08:46;;;;;;;5.90;5.38;;;13.00;99.90;;;;;;4171748;28;20143;-81
2022/10/16 00:11:28;;;;;;;5.65;5.35;;;13.10;99.90;;;;;;4172246;28;20136;-81
2022/10/16 00:13:51;;;;;;;5.53;5.32;;;13.10;99.90;;;;;;4172260;28;20103;-81
2022/10/16 00:16:13;;;;;;;5.93;5.47;;;13.10;99.90;;;;;;4171555;28;20084;-81
2022/10/16 00:18:33;;;;;;;7.82;7.47;;;13.10;99.90;;;;;;4171743;28;20052;-81
2022/10/16 00:20:55;;;;;;;6.50;6.25;;;13.00;99.90;;;;;;4171513;28;20103;-81
2022/10/16 00:23:21;;;;;;;7.85;7.55;;;12.80;99.90;;;;;;4171860;28;20063;-81
2022/10/16 00:25:42;;;;;;;7.68;7.07;;;12.70;99.90;;;;;;4171625;28;20060;-81
2022/10/16 00:28:02;;;;;;;6.20;6.00;;;12.60;99.90;;;;;;4171869;28;20095;-81
2022/10/16 00:30:23;;;;;;;8.10;7.40;;;12.60;99.90;;;;;;4170837;28;20048;-81
2022/10/16 00:32:43;;;;;;;7.50;7.03;;;12.60;99.90;;;;;;4171593;28;20072;-81
2022/10/16 00:35:04;;;;;;;6.95;6.28;;;12.50;99.90;;;;;;4176279;28;20060;-81
2022/10/16 00:37:25;;;;;;;5.88;5.47;;;12.50;99.90;;;;;;4182987;28;20060;-81
2022/10/16 00:39:46;;;;;;;6.63;6.03;;;12.50;99.90;;;;;;4171389;28;20057;-81
2022/10/16 00:42:06;;;;;;;5.88;5.57;;;12.50;99.90;;;;;;4175469;28;20079;-81
2022/10/16 00:44:47;;;;;;;6.38;5.93;;;12.30;99.90;;;;;;4172241;28;20057;-81
2022/10/16 00:47:17;;;;;;;5.90;5.35;;;12.20;99.90;;;;;;4169496;28;20103;-81
2022/10/16 00:49:37;;;;;;;5.78;5.47;;;12.10;99.90;;;;;;4172950;28;20059;-81
2022/10/16 00:51:58;;;;;;;7.65;6.93;;;12.00;99.90;;;;;;4170942;28;20051;-81
2022/10/16 00:54:25;;;;;;;6.80;6.50;;;11.90;99.90;;;;;;4171975;28;20060;-81
2022/10/16 00:56:46;;;;;;;7.10;6.68;;;11.90;99.90;;;;;;4184846;28;20139;-81
2022/10/16 00:59:16;;;;;;;6.43;5.60;;;11.90;99.90;;;;;;4170113;28;20052;-81
2022/10/16 01:01:37;;;;;;;6.30;5.95;;;12.00;99.90;;;;;;4165332;28;20059;-81
2022/10/16 01:03:58;;;;;;;7.15;6.70;;;11.90;99.90;;;;;;4172249;28;20527;-81
2022/10/16 01:06:48;;;;;;;6.30;6.10;;;11.80;99.90;;;;;;4171067;28;20056;-81
2022/10/16 01:09:35;;;;;;;6.22;5.93;;;12.00;99.90;;;;;;4170600;28;20424;-81
2022/10/16 01:11:56;;;;;;;6.30;6.10;;;12.00;99.90;;;;;;4168631;28;20103;-81
2022/10/16 01:14:38;;;;;;;5.70;5.20;;;12.00;99.90;;;;;;4169321;28;20119;-81
2022/10/16 01:17:06;;;;;;;5.93;5.72;;;12.00;99.90;;;;;;4170468;28;20053;-81
2022/10/16 01:19:53;;;;;;;6.78;6.45;;;12.00;99.90;;;;;;4170925;28;20080;-81
2022/10/16 01:22:15;;;;;;;6.60;6.30;;;12.00;99.90;;;;;;4165203;28;20131;-81
2022/10/16 01:24:42;;;;;;;6.85;6.53;;;11.90;99.90;;;;;;4175866;28;20060;-81
2022/10/16 01:27:26;;;;;;;6.82;6.40;;;11.90;99.90;;;;;;4170366;28;20101;-81
2022/10/16 01:30:00;;;;;;;7.13;6.60;;;11.80;99.90;;;;;;4169550;28;20135;-81
2022/10/16 01:32:40;;;;;;;8.18;7.40;;;11.80;99.90;;;;;;4170564;28;20048;-81
2022/10/16 01:35:27;;;;;;;7.60;7.20;;;11.80;99.90;;;;;;4170016;28;20122;-81
2022/10/16 01:38:12;;;;;;;6.00;5.65;;;11.70;99.90;;;;;;4169498;28;20138;-81
2022/10/16 01:40:34;;;;;;;7.18;6.80;;;11.60;99.90;;;;;;4165588;28;20048;-81
2022/10/16 01:43:12;;;;;;;8.27;6.72;;;11.60;99.90;;;;;;4169176;28;20118;-81
2022/10/16 01:45:34;;;;;;;8.10;7.40;;;11.60;99.90;;;;;;4170264;28;20107;-81
2022/10/16 01:47:55;;;;;;;7.53;7.13;;;11.60;99.90;;;;;;4175280;28;20051;-81
2022/10/16 01:50:19;;;;;;;8.45;7.95;;;11.60;99.90;;;;;;4170115;28;20056;-81
2022/10/16 01:52:44;;;;;;;8.98;8.25;;;11.50;99.90;;;;;;4170186;28;20536;-81
2022/10/16 01:55:08;;;;;;;9.10;8.15;;;11.50;99.90;;;;;;4170337;28;20471;-81
2022/10/16 01:57:31;;;;;;;9.05;8.30;;;11.30;99.90;;;;;;4170743;28;20488;-81
2022/10/16 01:59:56;;;;;;;13.82;8.57;;;11.30;99.90;;;;;;4170211;28;20120;-81
2022/10/16 02:02:19;;;;;;;10.57;9.63;;;11.40;99.90;;;;;;4169763;28;20130;-81
2022/10/16 02:04:42;;;;;;;;;;;11.30;99.90;;;;;;4171274;28;20565;-81
2022/10/16 02:07:03;;;;;;;6.13;5.68;;;11.30;99.90;;;;;;4169273;28;19928;-80
2022/10/16 02:09:24;;;;;;;5.60;5.25;;;11.20;99.90;;;;;;4171057;28;20526;-81
2022/10/16 02:11:44;;;;;;;6.50;6.05;;;11.10;99.90;;;;;;4170720;28;20055;-81
2022/10/16 02:14:06;;;;;;;34.63;7.50;;;11.10;99.90;;;;;;4169182;28;20075;-81
2022/10/16 02:16:45;;;;;;;41.17;8.48;;;11.10;99.90;;;;;;4169990;28;20061;-81
2022/10/16 02:19:06;;;;;;;111.65;10.35;;;11.20;99.90;;;;;;4170039;28;20054;-81
2022/10/16 02:21:31;;;;;;;82.10;8.63;;;11.30;99.90;;;;;;4169389;28;20060;-81
2022/10/16 02:24:29;;;;;;;64.30;7.47;;;11.40;99.90;;;;;;4170100;28;20421;-81
2022/10/16 02:26:50;;;;;;;69.90;9.32;;;11.50;99.90;;;;;;4169613;28;20106;-81
2022/10/16 02:29:14;;;;;;;7.05;6.85;;;11.50;99.90;;;;;;4169449;28;20594;-81
2022/10/16 02:31:38;;;;;;;6.55;6.45;;;11.60;99.90;;;;;;4169248;28;20464;-81
2022/10/16 02:34:00;;;;;;;59.63;8.95;;;11.60;99.90;;;;;;4170986;28;20052;-81
2022/10/16 02:36:21;;;;;;;8.43;8.10;;;11.60;99.90;;;;;;4169294;28;20099;-81
2022/10/16 02:38:42;;;;;;;42.33;8.65;;;11.60;99.90;;;;;;4168509;28;20515;-81
2022/10/16 02:41:03;;;;;;;8.57;7.60;;;11.50;99.90;;;;;;4168553;28;20126;-81
2022/10/16 02:43:26;;;;;;;8.30;7.68;;;11.40;99.90;;;;;;4164372;28;20526;-81
2022/10/16 02:45:46;;;;;;;10.77;7.15;;;11.30;99.90;;;;;;4169601;28;20047;-81
2022/10/16 02:48:07;;;;;;;10.05;8.05;;;11.40;99.90;;;;;;4171032;28;20049;-81
2022/10/16 02:50:28;;;;;;;7.13;6.72;;;11.30;99.90;;;;;;4169988;28;20055;-80
2022/10/16 02:52:48;;;;;;;9.55;7.38;;;11.30;99.90;;;;;;4169024;28;20048;-81
2022/10/16 02:55:09;;;;;;;17.95;7.65;;;11.30;99.90;;;;;;4170467;28;20436;-81
2022/10/16 02:57:31;;;;;;;9.65;6.85;;;11.20;99.90;;;;;;4169267;28;20524;-81
2022/10/16 02:59:51;;;;;;;6.80;6.55;;;11.10;99.90;;;;;;4169432;28;20047;-81
2022/10/16 03:02:12;;;;;;;80.10;7.95;;;11.10;99.90;;;;;;4170208;28;20068;-81
2022/10/16 03:04:32;;;;;;;58.90;7.57;;;11.10;99.90;;;;;;4169340;28;20582;-81
2022/10/16 03:06:53;;;;;;;9.70;6.72;;;11.00;99.90;;;;;;4169775;28;20129;-81
2022/10/16 03:09:14;;;;;;;43.55;7.05;;;10.90;99.90;;;;;;4170046;28;20056;-81
2022/10/16 03:11:34;;;;;;;56.85;7.85;;;10.90;99.90;;;;;;4170395;28;20052;-81
2022/10/16 03:13:55;;;;;;;11.10;7.00;;;10.80;99.90;;;;;;4169248;28;20052;-81
2022/10/16 03:16:16;;;;;;;8.07;7.60;;;10.80;99.90;;;;;;4169946;28;20048;-81
2022/10/16 03:18:36;;;;;;;9.85;8.38;;;10.90;99.90;;;;;;4168551;28;20095;-81
2022/10/16 03:20:58;;;;;;;106.50;10.25;;;10.90;99.90;;;;;;4168337;28;20096;-81
2022/10/16 03:23:18;;;;;;;76.18;9.90;;;10.70;99.90;;;;;;4169262;28;20060;-81
2022/10/16 03:25:41;;;;;;;103.30;10.40;;;10.70;99.90;;;;;;4168575;28;20079;-80
2022/10/16 03:28:02;;;;;;;29.20;8.20;;;10.60;99.90;;;;;;4168900;28;20056;-80
2022/10/16 03:30:23;;;;;;;18.95;7.50;;;10.60;99.90;;;;;;4170269;28;20060;-80
2022/10/16 03:32:45;;;;;;;47.35;7.35;;;10.60;99.90;;;;;;4168818;28;20544;-81
2022/10/16 03:35:06;;;;;;;6.88;6.60;;;10.50;99.90;;;;;;4168854;28;20522;-81
2022/10/16 03:37:26;;;;;;;18.48;5.57;;;10.50;99.90;;;;;;4171128;28;20052;-81
2022/10/16 03:39:47;;;;;;;37.33;7.63;;;10.50;99.90;;;;;;4172307;28;20044;-81
2022/10/16 03:42:10;;;;;;;9.95;6.70;;;10.50;99.90;;;;;;4167980;28;20122;-81
2022/10/16 03:44:31;;;;;;;28.10;7.95;;;10.50;99.90;;;;;;4171808;28;20543;-81
2022/10/16 03:46:53;;;;;;;23.02;6.53;;;10.50;99.90;;;;;;4171840;28;20095;-81
2022/10/16 03:49:14;;;;;;;46.38;6.88;;;10.50;99.90;;;;;;4172981;28;20102;-81
2022/10/16 03:51:36;;;;;;;38.67;6.68;;;10.30;99.90;;;;;;4172267;28;20611;-80
2022/10/16 03:53:57;;;;;;;19.65;5.85;;;10.30;99.90;;;;;;4172099;28;20048;-81
2022/10/16 03:56:17;;;;;;;22.13;6.35;;;10.30;99.90;;;;;;4171536;28;20851;-81
2022/10/16 03:58:38;;;;;;;6.88;6.70;;;10.30;99.90;;;;;;4172886;28;20075;-81
2022/10/16 04:00:58;;;;;;;6.50;6.20;;;10.40;99.90;;;;;;4171157;28;20056;-81
2022/10/16 04:03:19;;;;;;;6.25;6.15;;;10.50;99.90;;;;;;4169896;28;20083;-81
2022/10/16 04:05:40;;;;;;;6.10;6.00;;;10.60;99.90;;;;;;4167563;28;20098;-81
2022/10/16 04:08:01;;;;;;;40.15;7.00;;;10.60;99.90;;;;;;4170738;28;20432;-81
2022/10/16 04:10:22;;;;;;;10.15;5.00;;;10.60;99.90;;;;;;4171177;28;20052;-81
2022/10/16 04:12:42;;;;;;;61.83;7.97;;;10.50;99.90;;;;;;4171699;28;20056;-81
2022/10/16 04:15:03;;;;;;;6.80;6.30;;;10.40;99.90;;;;;;4170672;28;20080;-81
2022/10/16 04:17:24;;;;;;;7.32;6.35;;;10.40;99.90;;;;;;4171135;28;20056;-80
2022/10/16 04:19:45;;;;;;;7.82;5.68;;;10.40;99.90;;;;;;4172571;28;20052;-81
2022/10/16 04:22:06;;;;;;;10.23;6.03;;;10.40;99.90;;;;;;4177464;28;20060;-81
2022/10/16 04:24:26;;;;;;;18.95;7.00;;;10.40;99.90;;;;;;4170891;28;20055;-81
2022/10/16 04:26:47;;;;;;;6.22;6.03;;;10.40;99.90;;;;;;4171807;28;20061;-81
2022/10/16 04:29:07;;;;;;;8.85;5.95;;;10.40;99.90;;;;;;4171678;28;20080;-81
2022/10/16 04:31:28;;;;;;;6.05;5.75;;;10.40;99.90;;;;;;4177089;28;20056;-81
2022/10/16 04:33:49;;;;;;;9.48;5.15;;;10.40;99.90;;;;;;4172386;28;20497;-81
2022/10/16 04:36:11;;;;;;;4.57;4.47;;;10.50;99.90;;;;;;4170636;28;20535;-81
2022/10/16 04:38:31;;;;;;;10.05;5.85;;;10.50;99.90;;;;;;4172980;28;20994;-81
2022/10/16 04:40:52;;;;;;;19.63;5.15;;;10.50;99.90;;;;;;4171900;28;20067;-81
2022/10/16 04:43:13;;;;;;;44.83;6.82;;;10.50;99.90;;;;;;4171878;28;20061;-81
2022/10/16 04:45:34;;;;;;;15.43;5.70;;;10.40;99.90;;;;;;4169034;28;20064;-81
2022/10/16 04:47:59;;;;;;;102.00;8.30;;;10.30;99.90;;;;;;4170125;28;20063;-81
2022/10/16 04:50:19;;;;;;;36.35;6.35;;;10.30;99.90;;;;;;4169441;28;20103;-81
2022/10/16 04:52:40;;;;;;;63.53;6.50;;;10.30;99.90;;;;;;4170405;28;20440;-81
2022/10/16 04:55:02;;;;;;;50.08;6.55;;;10.20;99.90;;;;;;4171249;28;20060;-81
2022/10/16 04:57:23;;;;;;;113.03;9.93;;;10.20;99.90;;;;;;4170037;28;20052;-81
2022/10/16 04:59:43;;;;;;;84.45;8.98;;;10.20;99.90;;;;;;4170432;28;20840;-81
2022/10/16 05:02:04;;;;;;;134.35;11.73;;;10.20;99.90;;;;;;4170649;28;20122;-81
2022/10/16 05:04:26;;;;;;;139.10;12.27;;;10.20;99.90;;;;;;4169954;28;20138;-81
2022/10/16 05:06:48;;;;;;;163.32;11.93;;;10.10;99.90;;;;;;4171297;28;20138;-81
2022/10/16 05:09:10;;;;;;;202.35;15.20;;;10.10;99.90;;;;;;4171461;28;20060;-81
2022/10/16 05:11:31;;;;;;;86.53;9.52;;;10.10;99.90;;;;;;4166034;28;20059;-81
2022/10/16 05:13:52;;;;;;;67.18;8.05;;;10.10;99.90;;;;;;4172005;28;20052;-81
2022/10/16 05:16:16;;;;;;;107.10;11.18;;;10.10;99.90;;;;;;4170722;28;20100;-81
2022/10/16 05:18:36;;;;;;;63.83;7.30;;;10.10;99.90;;;;;;4169877;28;20052;-81
2022/10/16 05:20:57;;;;;;;72.63;7.82;;;10.20;99.90;;;;;;4170489;28;20107;-81
2022/10/16 05:23:18;;;;;;;80.20;8.00;;;10.20;99.90;;;;;;4184420;28;20056;-81
2022/10/16 05:25:40;;;;;;;60.90;7.00;;;10.10;99.90;;;;;;4170189;28;20497;-81
2022/10/16 05:28:00;;;;;;;22.27;6.53;;;10.10;99.90;;;;;;4170905;28;20084;-81
2022/10/16 05:30:21;;;;;;;5.55;5.13;;;10.20;99.90;;;;;;4170622;28;20055;-81
2022/10/16 05:32:45;;;;;;;4.75;4.65;;;10.20;99.90;;;;;;4170745;28;20158;-81
2022/10/16 05:35:06;;;;;;;176.38;10.77;;;10.20;99.90;;;;;;4168312;28;20061;-81
2022/10/16 05:37:33;;;;;;;5.65;5.50;;;10.20;99.90;;;;;;4170134;28;20125;-81
2022/10/16 05:39:53;;;;;;;4.95;4.85;;;10.30;99.90;;;;;;4170459;28;20484;-81
2022/10/16 05:42:14;;;;;;;10.57;4.47;;;10.40;99.90;;;;;;4169781;28;20059;-81
2022/10/16 05:44:36;;;;;;;19.10;5.18;;;10.30;99.90;;;;;;4167905;28;20052;-81
2022/10/16 05:46:56;;;;;;;27.73;5.97;;;10.30;99.90;;;;;;4170552;28;20056;-81
2022/10/16 05:49:17;;;;;;;37.75;6.13;;;10.20;99.90;;;;;;4175277;28;20055;-81
2022/10/16 05:51:38;;;;;;;18.08;5.18;;;10.20;99.90;;;;;;4170063;28;20072;-81
2022/10/16 05:53:58;;;;;;;24.98;5.38;;;10.20;99.90;;;;;;4169777;28;20099;-81
2022/10/16 05:56:20;;;;;;;20.98;5.40;;;10.20;99.90;;;;;;4169864;28;20123;-81
2022/10/16 05:58:41;;;;;;;3.80;3.60;;;10.20;99.90;;;;;;4170519;28;20055;-81
2022/10/16 06:01:09;;;;;;;19.50;4.85;;;10.20;99.90;;;;;;4171246;28;20059;-81
2022/10/16 06:03:30;;;;;;;4.13;3.90;;;10.30;99.90;;;;;;4164967;28;20056;-81
2022/10/16 06:05:51;;;;;;;3.88;3.78;;;10.30;99.90;;;;;;4175161;28;20059;-81
2022/10/16 06:08:12;;;;;;;17.33;5.63;;;10.40;99.90;;;;;;4175017;28;20453;-81
2022/10/16 06:10:32;;;;;;;10.00;5.53;;;10.40;99.90;;;;;;4168952;28;20965;-81
2022/10/16 06:12:53;;;;;;;8.25;5.07;;;10.40;99.90;;;;;;4168557;28;20516;-81
2022/10/16 06:15:13;;;;;;;18.85;4.72;;;10.50;99.90;;;;;;4169402;28;20108;-81
2022/10/16 06:17:34;;;;;;;14.35;5.15;;;10.50;99.90;;;;;;4169476;28;20104;-81
2022/10/16 06:19:55;;;;;;;4.82;4.68;;;10.40;99.90;;;;;;4168661;28;20075;-81
2022/10/16 06:22:15;;;;;;;4.78;4.47;;;10.30;99.90;;;;;;4170276;28;20056;-81
2022/10/16 06:24:37;;;;;;;109.45;9.32;;;10.40;99.90;;;;;;4169533;28;20095;-81
2022/10/16 06:26:59;;;;;;;57.08;6.05;;;10.40;99.90;;;;;;4171644;28;20087;-81
2022/10/16 06:29:19;;;;;;;245.73;12.48;;;10.30;99.90;;;;;;4174583;28;20051;-81
2022/10/16 06:31:40;;;;;;;34.00;5.18;;;10.20;99.90;;;;;;4169886;28;20400;-81
2022/10/16 06:34:01;;;;;;;46.30;5.53;;;10.30;99.90;;;;;;4168652;28;20057;-81
2022/10/16 06:36:23;;;;;;;4.15;3.92;;;10.40;99.90;;;;;;4175200;28;20127;-81
2022/10/16 06:38:45;;;;;;;6.18;4.03;;;10.50;99.90;;;;;;4169663;28;20096;-81
2022/10/16 06:41:06;;;;;;;4.35;4.15;;;10.50;99.90;;;;;;4166496;28;20544;-81
2022/10/16 06:43:32;;;;;;;29.85;5.13;;;10.50;99.90;;;;;;4169075;28;20140;-81
2022/10/16 06:45:55;;;;;;;145.20;8.70;;;10.50;99.90;;;;;;4168295;28;20110;-81
2022/10/16 06:48:15;;;;;;;61.83;6.75;;;10.50;99.90;;;;;;4166798;28;20103;-81
2022/10/16 06:50:36;;;;;;;201.80;13.20;;;10.50;99.90;;;;;;4169609;28;20140;-81
2022/10/16 06:52:56;;;;;;;64.55;6.43;;;10.50;99.90;;;;;;4174790;28;20053;-81
2022/10/16 06:55:17;;;;;;;171.65;10.90;;;10.50;99.90;;;;;;4169810;28;20052;-81
2022/10/16 06:57:37;;;;;;;26.00;6.30;;;10.40;99.90;;;;;;4169970;28;20500;-81
2022/10/16 06:59:58;;;;;;;55.22;6.53;;;10.50;99.90;;;;;;4170099;28;20459;-81
2022/10/16 07:02:18;;;;;;;5.47;5.03;;;10.60;99.90;;;;;;4169208;28;20056;-81
2022/10/16 07:04:39;;;;;;;109.57;8.10;;;10.70;99.90;;;;;;4167218;28;20069;-81
2022/10/16 07:07:00;;;;;;;108.72;7.90;;;10.70;99.90;;;;;;4167818;28;20060;-81
2022/10/16 07:09:26;;;;;;;49.95;6.43;;;10.70;99.90;;;;;;4167907;28;20052;-81
2022/10/16 07:11:46;;;;;;;139.63;7.97;;;10.70;99.90;;;;;;4171802;28;20558;-81
2022/10/16 07:14:25;;;;;;;85.00;6.38;;;10.70;99.90;;;;;;4172393;28;20082;-81
2022/10/16 07:16:47;;;;;;;44.45;4.32;;;10.70;99.90;;;;;;4172020;28;21017;-80
2022/10/16 07:19:08;;;;;;;24.45;3.47;;;10.60;99.90;;;;;;4171737;28;20442;-81
2022/10/16 07:21:35;;;;;;;53.92;5.72;;;10.70;99.90;;;;;;4172598;28;20051;-81
2022/10/16 07:23:59;;;;;;;67.25;6.95;;;10.80;99.90;;;;;;4171761;28;20123;-81
2022/10/16 07:26:19;;;;;;;;;;;10.90;99.90;;;;;;4171416;28;20465;-81
2022/10/16 07:28:39;;;;;;;42.05;5.05;;;10.90;99.90;;;;;;4173087;28;19980;-81
2022/10/16 07:31:05;;;;;;;97.40;7.35;;;10.90;99.90;;;;;;4171074;28;20409;-81
2022/10/16 07:33:25;;;;;;;63.63;4.97;;;10.90;99.90;;;;;;4173045;28;20087;-81
2022/10/16 07:35:54;;;;;;;21.75;4.10;;;10.90;99.90;;;;;;4172254;28;20107;-80
2022/10/16 07:38:14;;;;;;;8.68;3.30;;;11.00;99.90;;;;;;4172366;28;20071;-80
2022/10/16 07:40:35;;;;;;;3.22;3.17;;;11.00;99.90;;;;;;4171461;28;20053;-80
2022/10/16 07:42:55;;;;;;;3.10;3.00;;;11.10;99.90;;;;;;4172230;28;20084;-81
2022/10/16 07:45:16;;;;;;;2.92;2.42;;;11.30;99.90;;;;;;4172478;28;20258;-80
2022/10/16 07:47:37;;;;;;;3.10;2.63;;;11.40;99.90;;;;;;4173136;28;20519;-80
2022/10/16 07:49:57;;;;;;;3.38;3.17;;;11.60;99.90;;;;;;4170858;28;20095;-80
2022/10/16 07:52:18;;;;;;;3.15;3.15;;;11.70;99.90;;;;;;4172726;28;20071;-80
2022/10/16 07:54:39;;;;;;;17.45;4.43;;;11.80;99.90;;;;;;4171699;28;20063;-80
2022/10/16 07:57:01;;;;;;;6.07;4.15;;;11.90;99.90;;;;;;4166484;28;20071;-80
2022/10/16 07:59:21;;;;;;;4.63;4.53;;;12.00;99.90;;;;;;4172658;28;20052;-80
2022/10/16 08:01:42;;;;;;;3.72;3.63;;;12.10;99.90;;;;;;4170444;28;20052;-81
2022/10/16 08:04:03;;;;;;;3.45;3.25;;;12.20;99.90;;;;;;4177518;28;20063;-80
2022/10/16 08:06:28;;;;;;;3.75;3.65;;;12.20;99.90;;;;;;4170898;28;20063;-80
2022/10/16 08:08:49;;;;;;;4.85;4.50;;;12.30;99.90;;;;;;4177840;28;20106;-81
2022/10/16 08:11:10;;;;;;;3.88;3.78;;;12.20;99.90;;;;;;4177502;28;20075;-81
2022/10/16 08:13:32;;;;;;;3.65;3.55;;;12.30;99.90;;;;;;4170873;28;20056;-80
2022/10/16 08:15:54;;;;;;;3.78;3.67;;;12.40;99.90;;;;;;4177818;28;20840;-80
2022/10/16 08:18:15;;;;;;;3.58;3.50;;;12.50;99.90;;;;;;4172330;28;20072;-80
2022/10/16 08:20:39;;;;;;;3.67;3.58;;;12.60;99.90;;;;;;4177654;28;20064;-80
2022/10/16 08:23:01;;;;;;;4.00;3.90;;;12.70;99.90;;;;;;4172225;28;20079;-80
2022/10/16 08:25:23;;;;;;;3.67;3.42;;;12.80;99.90;;;;;;4171206;28;20055;-80
2022/10/16 08:27:44;;;;;;;2.53;2.53;;;12.80;99.90;;;;;;4171471;28;20108;-80
2022/10/16 08:30:05;;;;;;;4.60;4.50;;;12.80;99.90;;;;;;4171491;28;20204;-80
2022/10/16 08:32:27;;;;;;;2.97;2.92;;;12.80;99.90;;;;;;4171783;28;20052;-80
2022/10/16 08:34:49;;;;;;;2.53;2.53;;;13.00;99.90;;;;;;4171365;28;20164;-80
2022/10/16 08:37:13;;;;;;;5.15;3.13;;;13.10;99.90;;;;;;4171818;28;20125;-80
2022/10/16 08:39:34;;;;;;;3.08;2.97;;;13.30;99.90;;;;;;4169026;28;20115;-81
2022/10/16 08:42:13;;;;;;;2.95;2.95;;;13.40;99.90;;;;;;4170824;28;20049;-80
2022/10/16 08:45:01;;;;;;;3.08;2.97;;;13.50;99.90;;;;;;4170051;28;20107;-79
2022/10/16 08:47:57;;;;;;;3.00;1.95;;;13.60;99.90;;;;;;4170401;28;20126;-80
2022/10/16 08:50:27;;;;;;;2.47;1.92;;;13.80;99.90;;;;;;4171740;28;20126;-80
2022/10/16 08:52:48;;;;;;;2.25;2.15;;;14.00;99.90;;;;;;4172342;28;20060;-80
2022/10/16 08:55:34;;;;;;;1.77;1.70;;;14.10;99.90;;;;;;4171278;28;20663;-80
2022/10/16 08:57:54;;;;;;;2.30;1.65;;;14.30;99.90;;;;;;4171374;28;20091;-80
2022/10/16 09:00:16;;;;;;;1.70;1.70;;;14.30;99.90;;;;;;4168108;28;20076;-80
2022/10/16 09:02:52;;;;;;;1.55;1.50;;;14.40;99.90;;;;;;4170818;28;20068;-80
2022/10/16 09:05:21;;;;;;;1.42;1.38;;;14.60;99.90;;;;;;4172645;28;20088;-80
2022/10/16 09:08:09;;;;;;;3.38;1.30;;;14.70;99.90;;;;;;4170338;28;20417;-80
2022/10/16 09:10:38;;;;;;;3.45;1.30;;;15.00;99.90;;;;;;4171008;28;20060;-80
2022/10/16 09:13:19;;;;;;;1.33;1.15;;;15.10;99.90;;;;;;4170313;28;20405;-80
2022/10/16 09:15:47;;;;;;;1.30;1.30;;;15.20;99.90;;;;;;4165545;28;20919;-80
2022/10/16 09:18:20;;;;;;;1.40;1.40;;;15.50;99.90;;;;;;4169478;28;20059;-80
2022/10/16 09:20:50;;;;;;;1.10;1.10;;;15.70;99.90;;;;;;4169643;28;20131;-80
2022/10/16 09:23:25;;;;;;;1.10;1.10;;;15.90;99.90;;;;;;4169898;28;20294;-80
2022/10/16 09:25:49;;;;;;;1.20;1.20;;;16.10;99.90;;;;;;4170250;28;20052;-80
2022/10/16 09:28:10;;;;;;;1.20;1.20;;;16.30;99.90;;;;;;4169611;28;20057;-80
2022/10/16 09:30:30;;;;;;;1.45;1.42;;;16.50;99.90;;;;;;4170053;28;20127;-80
2022/10/16 09:32:54;;;;;;;1.60;1.50;;;17.20;99.90;;;;;;4170201;28;20099;-80
2022/10/16 09:35:19;;;;;;;1.27;1.17;;;17.40;99.90;;;;;;4169719;28;20056;-80
2022/10/16 09:37:42;;;;;;;1.10;1.00;;;17.80;99.90;;;;;;4169283;28;20048;-80
2022/10/16 09:40:03;;;;;;;9.80;1.92;;;17.60;99.90;;;;;;4169512;28;21992;-80
2022/10/16 09:42:36;;;;;;;5.35;1.23;;;17.70;99.90;;;;;;4169071;28;20051;-80
2022/10/16 09:44:57;;;;;;;1.05;1.00;;;17.80;99.90;;;;;;4170484;28;20127;-81
2022/10/16 09:47:28;;;;;;;1.52;1.42;;;18.10;99.90;;;;;;4168439;28;20123;-80
2022/10/16 09:49:59;;;;;;;1.23;1.23;;;18.10;99.90;;;;;;4169938;28;20107;-80
2022/10/16 09:52:20;;;;;;;3.30;1.30;;;18.30;99.90;;;;;;4171161;28;20051;-80
2022/10/16 09:54:59;;;;;;;1.00;1.00;;;18.60;99.90;;;;;;4169741;28;20053;-80
2022/10/16 09:57:20;;;;;;;1.38;1.27;;;18.80;99.90;;;;;;4164654;28;20056;-80
2022/10/16 09:59:55;;;;;;;1.60;1.52;;;18.90;99.90;;;;;;4164264;28;20060;-81
2022/10/16 10:02:19;;;;;;;3.17;1.33;;;19.10;99.90;;;;;;4168302;28;20670;-81
2022/10/16 10:04:51;;;;;;;1.17;1.17;;;19.60;99.90;;;;;;4169069;28;20110;-81
2022/10/16 10:07:42;;;;;;;2.35;1.20;;;19.90;99.90;;;;;;4170653;28;20139;-81
2022/10/16 10:10:05;;;;;;;1.60;1.00;;;20.00;99.90;;;;;;4168961;28;20060;-81
2022/10/16 10:12:27;;;;;;;1.00;1.00;;;20.30;99.90;;;;;;4170413;28;20047;-81
2022/10/16 10:14:52;;;;;;;;;;;20.50;99.90;;;;;;4170121;28;20056;-81
2022/10/16 10:17:17;;;;;;;3.90;1.10;;;20.60;99.90;;;;;;4169685;28;19931;-81
2022/10/16 10:20:05;;;;;;;1.33;1.00;;;20.60;99.90;;;;;;4169740;28;20103;-81
2022/10/16 10:22:30;;;;;;;1.25;1.10;;;21.10;99.90;;;;;;4171076;28;20524;-81
2022/10/16 10:25:15;;;;;;;2.35;0.90;;;21.10;99.90;;;;;;4169181;28;21040;-81
2022/10/16 10:28:02;;;;;;;1.17;1.00;;;21.10;99.90;;;;;;4170622;28;20189;-81
2022/10/16 10:30:31;;;;;;;2.22;1.00;;;21.10;99.90;;;;;;4169447;28;20066;-81
2022/10/16 10:33:19;;;;;;;1.85;1.00;;;21.60;99.90;;;;;;4170672;28;20527;-81
2022/10/16 10:35:56;;;;;;;3.13;2.90;;;22.10;99.90;;;;;;4169903;28;20605;-81
2022/10/16 10:38:47;;;;;;;2.05;1.10;;;22.20;99.90;;;;;;4171720;28;20048;-81
2022/10/16 10:41:14;;;;;;;1.35;0.90;;;21.70;99.90;;;;;;4153007;28;20082;-81
2022/10/16 10:44:15;;;;;;;1.08;0.80;;;21.90;99.90;;;;;;4170147;28;20095;-81
2022/10/16 10:46:44;;;;;;;1.30;1.25;;;22.30;99.90;;;;;;4172806;28;20443;-82
2022/10/16 10:49:17;;;;;;;1.38;0.80;;;22.60;99.90;;;;;;4173916;28;20146;-81
2022/10/16 10:51:50;;;;;;;2.15;0.90;;;22.90;99.90;;;;;;4173464;28;20099;-81
2022/10/16 10:54:27;;;;;;;1.58;0.70;;;22.90;99.90;;;;;;4169822;28;20968;-82
2022/10/16 10:56:53;;;;;;;2.58;0.70;;;22.80;99.90;;;;;;4169032;28;20055;-82
2022/10/16 10:59:52;;;;;;;0.82;0.70;;;22.90;99.90;;;;;;4172347;28;20055;-81
2022/10/16 11:02:40;;;;;;;0.70;0.70;;;22.70;99.90;;;;;;4172005;28;20087;-81
2022/10/16 11:05:17;;;;;;;1.75;0.70;;;23.20;99.90;;;;;;4173789;28;20107;-81
2022/10/16 11:07:50;;;;;;;0.65;0.65;;;22.60;99.90;;;;;;4172966;28;20552;-81
2022/10/16 11:10:26;;;;;;;0.65;0.65;;;22.60;99.90;;;;;;4168141;28;20107;-81
2022/10/16 11:12:56;;;;;;;0.82;0.70;;;22.50;99.90;;;;;;4172542;28;20116;-81
2022/10/16 11:15:24;;;;;;;0.80;0.70;;;22.70;99.90;;;;;;4173782;28;20102;-82
2022/10/16 11:18:07;;;;;;;0.70;0.70;;;22.80;99.90;;;;;;4168667;28;20048;-81
2022/10/16 11:20:34;;;;;;;0.60;0.60;;;23.00;99.90;;;;;;4173848;28;20188;-81
2022/10/16 11:23:07;;;;;;;1.55;0.63;;;23.20;99.90;;;;;;4173827;28;20052;-82
2022/10/16 11:25:30;;;;;;;0.63;0.63;;;23.20;99.90;;;;;;4171927;28;20115;-82
2022/10/16 11:28:09;;;;;;;0.60;0.60;;;23.20;99.90;;;;;;4173660;28;20119;-82
2022/10/16 11:30:33;;;;;;;1.55;0.60;;;23.40;99.90;;;;;;4167946;28;20129;-81
2022/10/16 11:33:00;;;;;;;0.65;0.60;;;22.90;99.90;;;;;;4173126;28;20059;-81
2022/10/16 11:35:27;;;;;;;1.00;0.90;;;23.00;99.90;;;;;;4171844;28;20048;-81
2022/10/16 11:37:51;;;;;;;2.47;0.70;;;23.60;99.90;;;;;;4178247;28;20060;-82
2022/10/16 11:40:35;;;;;;;3.90;1.35;;;23.90;99.90;;;;;;4172228;28;20096;-82
2022/10/16 11:43:10;;;;;;;0.70;0.70;;;23.60;99.90;;;;;;4171644;28;20051;-81
2022/10/16 11:45:39;;;;;;;4.25;1.80;;;23.10;99.90;;;;;;4172144;28;20126;-82
2022/10/16 11:48:35;;;;;;;0.70;0.70;;;23.50;99.90;;;;;;4172586;28;20133;-82
2022/10/16 11:51:15;;;;;;;0.60;0.60;;;23.70;99.90;;;;;;4171840;28;20106;-82
2022/10/16 11:53:50;;;;;;;0.70;0.70;;;23.40;99.90;;;;;;4171629;28;20047;-82
2022/10/16 11:56:18;;;;;;;0.60;0.60;;;23.50;99.90;;;;;;4170366;28;20084;-82
2022/10/16 11:59:02;;;;;;;0.65;0.65;;;24.10;99.90;;;;;;4173206;28;20573;-82
2022/10/16 12:01:55;;;;;;;1.52;0.70;;;24.20;99.90;;;;;;4171184;28;20114;-82
2022/10/16 12:04:45;;;;;;;1.95;0.70;;;23.70;99.90;;;;;;4158572;28;20436;-82
2022/10/16 12:07:08;;;;;;;0.80;0.80;;;23.10;99.90;;;;;;4171978;28;20099;-82
2022/10/16 12:09:36;;;;;;;1.70;0.70;;;22.70;99.90;;;;;;4172572;28;20096;-82
2022/10/16 12:11:57;;;;;;;0.70;0.70;;;22.90;99.90;;;;;;4172171;28;20080;-82
2022/10/16 12:14:20;;;;;;;0.75;0.70;;;23.30;99.90;;;;;;4172296;28;20098;-82
2022/10/16 12:17:22;;;;;;;8.10;1.48;;;23.40;99.90;;;;;;4172117;28;20102;-82
2022/10/16 12:19:42;;;;;;;2.20;0.70;;;22.70;99.90;;;;;;4173350;28;20092;-82
2022/10/16 12:22:03;;;;;;;0.70;0.70;;;22.70;99.90;;;;;;4170963;28;20132;-82
2022/10/16 12:24:38;;;;;;;0.60;0.60;;;23.00;99.90;;;;;;4172002;28;20056;-81
2022/10/16 12:26:59;;;;;;;0.70;0.70;;;23.00;99.90;;;;;;4172075;28;20103;-81
2022/10/16 12:29:42;;;;;;;1.83;0.70;;;22.90;99.90;;;;;;4171465;28;20128;-82
2022/10/16 12:32:20;;;;;;;;;;;22.80;99.90;;;;;;4172070;28;20251;-82
2022/10/16 12:35:03;;;;;;;0.88;0.77;;;22.80;99.90;;;;;;4171914;28;20313;-82
2022/10/16 12:37:27;;;;;;;0.90;0.90;;;23.00;99.90;;;;;;4171847;28;20060;-82